createdAt,value
2023-04-22T00:00:31.036Z,92.0702
2023-04-22T00:01:39.090Z,91.3134
2023-04-22T00:02:47.128Z,90.9064
2023-04-22T00:03:55.207Z,89.5641
2023-04-22T00:05:03.353Z,89.3260
2023-04-22T00:06:11.530Z,88.8477
2023-04-22T00:07:19.420Z,88.6019
2023-04-22T00:08:27.473Z,87.8375
2023-04-22T00:09:35.634Z,88.0456
2023-04-22T00:10:43.558Z,90.0667
2023-04-22T00:11:51.685Z,90.7508
2023-04-22T00:12:59.766Z,90.8263
2023-04-22T00:14:07.782Z,91.1298
2023-04-22T00:15:16.042Z,90.9351
2023-04-22T00:16:23.916Z,90.8286
2023-04-22T00:17:32.025Z,90.8984
2023-04-22T00:18:39.899Z,90.8894
2023-04-22T00:19:47.949Z,91.6330
2023-04-22T00:20:56.179Z,91.7378
2023-04-22T00:22:04.229Z,91.4929
2023-04-22T00:23:12.347Z,91.7030
2023-04-22T00:24:20.343Z,91.8849
2023-04-22T00:25:28.427Z,92.7765
2023-04-22T00:26:36.554Z,92.7823
2023-04-22T00:27:44.422Z,92.8765
2023-04-22T00:28:52.659Z,92.8318
2023-04-22T00:30:00.708Z,92.6971
2023-04-22T00:31:08.804Z,92.8907
2023-04-22T00:32:16.704Z,92.5193
2023-04-22T00:33:24.747Z,92.6763
2023-04-22T00:34:32.806Z,93.5218
2023-04-22T00:35:41.640Z,93.3181
2023-04-22T00:36:49.030Z,92.7388
2023-04-22T00:37:57.218Z,92.6977
2023-04-22T00:39:05.212Z,93.0381
2023-04-22T00:40:13.320Z,92.9914
2023-04-22T00:41:21.329Z,93.5109
2023-04-22T00:42:29.438Z,92.5655
2023-04-22T00:43:37.479Z,92.0203
2023-04-22T00:44:45.547Z,92.3680
2023-04-22T00:45:53.741Z,92.7786
2023-04-22T00:47:01.595Z,92.8549
2023-04-22T00:48:09.699Z,92.8541
2023-04-22T00:49:17.677Z,93.1884
2023-04-22T00:50:26.117Z,93.5159
2023-04-22T00:51:33.989Z,93.7871
2023-04-22T00:52:42.014Z,95.2318
2023-04-22T00:53:50.044Z,95.5530
2023-04-22T00:54:58.139Z,96.5125
2023-04-22T00:56:06.198Z,97.1168
2023-04-22T00:57:14.355Z,96.7074
2023-04-22T00:58:22.291Z,96.9642
2023-04-22T00:59:30.398Z,97.2859
2023-04-22T01:00:38.460Z,97.4963
2023-04-22T01:01:46.442Z,97.6014
2023-04-22T01:02:54.597Z,98.4950
2023-04-22T01:04:02.627Z,97.7230
2023-04-22T01:05:10.954Z,96.5267
2023-04-22T01:06:18.746Z,95.9198
2023-04-22T01:07:26.957Z,95.5054
2023-04-22T01:08:34.930Z,95.0109
2023-04-22T01:09:43.050Z,94.6092
2023-04-22T01:10:51.052Z,94.5674
2023-04-22T01:11:59.112Z,95.0474
2023-04-22T01:13:07.213Z,94.6251
2023-04-22T01:14:15.234Z,93.9560
2023-04-22T01:15:23.305Z,93.3893
2023-04-22T01:16:31.360Z,92.5836
2023-04-22T01:17:39.389Z,92.8781
2023-04-22T01:18:47.388Z,93.6063
2023-04-22T01:19:55.593Z,93.4331
2023-04-22T01:21:03.823Z,94.5552
2023-04-22T01:22:11.947Z,94.6249
2023-04-22T01:23:19.765Z,94.1183
2023-04-22T01:24:27.930Z,95.0187
2023-04-22T01:25:35.896Z,95.1492
2023-04-22T01:26:43.951Z,95.5094
2023-04-22T01:27:52.196Z,95.5570
2023-04-22T01:29:00.121Z,95.2623
2023-04-22T01:30:08.221Z,94.5267
2023-04-22T01:31:16.094Z,94.0527
2023-04-22T01:32:24.203Z,94.4600
2023-04-22T01:33:32.222Z,94.5617
2023-04-22T01:34:40.372Z,94.5351
2023-04-22T01:35:48.604Z,94.6217
2023-04-22T01:36:56.690Z,94.3205
2023-04-22T01:38:04.603Z,94.5687
2023-04-22T01:39:12.720Z,95.2652
2023-04-22T01:40:20.762Z,96.3155
2023-04-22T01:41:28.815Z,96.6090
2023-04-22T01:42:36.873Z,96.3846
2023-04-22T01:43:44.958Z,95.9587
2023-04-22T01:44:53.169Z,93.6693
2023-04-22T01:46:00.944Z,94.2590
2023-04-22T01:47:09.042Z,94.7872
2023-04-22T01:48:17.083Z,94.9289
2023-04-22T01:49:25.255Z,94.9027
2023-04-22T01:50:33.336Z,95.3387
2023-04-22T01:51:41.456Z,94.7797
2023-04-22T01:52:49.618Z,93.9891
2023-04-22T01:53:57.491Z,93.6405
2023-04-22T01:55:05.586Z,94.9875
2023-04-22T01:56:13.641Z,95.5394
2023-04-22T01:57:21.750Z,96.5845
2023-04-22T01:58:29.840Z,97.4217
2023-04-22T01:59:38.194Z,98.0528
2023-04-22T02:00:45.792Z,97.8482
2023-04-22T02:01:53.879Z,98.1894
2023-04-22T02:03:02.282Z,97.5211
2023-04-22T02:04:10.181Z,97.9287
2023-04-22T02:05:18.232Z,97.1904
2023-04-22T02:06:26.329Z,96.2850
2023-04-22T02:07:34.374Z,96.6727
2023-04-22T02:08:42.636Z,97.0735
2023-04-22T02:09:50.977Z,97.0332
2023-04-22T02:10:58.619Z,96.3597
2023-04-22T02:12:06.654Z,96.1196
2023-04-22T02:13:14.722Z,94.8451
2023-04-22T02:14:22.792Z,96.9198
2023-04-22T02:15:30.716Z,98.4717
2023-04-22T02:16:38.798Z,100.1162
2023-04-22T02:17:46.818Z,99.7160
2023-04-22T02:18:55.143Z,98.4088
2023-04-22T02:20:03.166Z,97.5953
2023-04-22T02:21:11.388Z,97.2316
2023-04-22T02:22:19.272Z,97.0233
2023-04-22T02:23:27.294Z,96.6580
2023-04-22T02:24:35.549Z,94.5300
2023-04-22T02:25:43.412Z,93.5444
2023-04-22T02:26:51.490Z,95.2604
2023-04-22T02:27:59.535Z,98.5915
2023-04-22T02:29:07.609Z,100.9381
2023-04-22T02:30:15.648Z,99.4324
2023-04-22T02:31:23.614Z,98.9314
2023-04-22T02:32:31.792Z,98.8339
2023-04-22T02:33:39.907Z,97.9868
2023-04-22T02:34:47.954Z,97.3811
2023-04-22T02:35:56.124Z,96.9343
2023-04-22T02:37:04.084Z,95.4316
2023-04-22T02:38:12.261Z,95.0648
2023-04-22T02:39:20.239Z,96.0994
2023-04-22T02:40:28.399Z,95.8475
2023-04-22T02:41:36.450Z,95.4819
2023-04-22T02:42:44.403Z,95.0333
2023-04-22T02:43:52.497Z,94.8578
2023-04-22T02:45:00.439Z,95.2495
2023-04-22T02:46:08.518Z,95.8132
2023-04-22T02:47:16.587Z,96.6282
2023-04-22T02:48:24.777Z,96.1230
2023-04-22T02:49:32.854Z,96.6341
2023-04-22T02:50:40.949Z,100.5345
2023-04-22T02:51:49.022Z,101.0450
2023-04-22T02:52:57.125Z,100.8274
2023-04-22T02:54:05.191Z,99.4791
2023-04-22T02:55:13.248Z,98.6450
2023-04-22T02:56:21.267Z,99.2555
2023-04-22T02:57:29.518Z,100.9286
2023-04-22T02:58:37.509Z,100.3421
2023-04-22T02:59:45.345Z,99.2775
2023-04-22T03:00:53.440Z,98.3339
2023-04-22T03:02:01.714Z,97.0159
2023-04-22T03:03:09.819Z,96.8583
2023-04-22T03:04:17.843Z,97.3975
2023-04-22T03:05:25.838Z,98.7002
2023-04-22T03:06:33.886Z,99.7204
2023-04-22T03:07:41.961Z,99.5387
2023-04-22T03:08:50.070Z,97.6289
2023-04-22T03:09:58.292Z,96.7344
2023-04-22T03:11:06.125Z,96.0685
2023-04-22T03:12:14.222Z,95.7886
2023-04-22T03:13:22.273Z,95.2330
2023-04-22T03:14:30.252Z,94.4823
2023-04-22T03:15:38.294Z,96.1810
2023-04-22T03:16:46.378Z,97.6768
2023-04-22T03:17:54.565Z,99.0599
2023-04-22T03:19:02.654Z,98.3840
2023-04-22T03:20:10.766Z,97.3590
2023-04-22T03:21:18.777Z,97.1419
2023-04-22T03:22:26.829Z,96.7317
2023-04-22T03:23:34.887Z,94.8703
2023-04-22T03:24:42.949Z,94.2615
2023-04-22T03:25:51.112Z,94.1415
2023-04-22T03:26:59.125Z,94.3173
2023-04-22T03:28:07.148Z,95.0320
2023-04-22T03:29:15.089Z,94.6537
2023-04-22T03:30:23.185Z,94.0601
2023-04-22T03:31:31.304Z,94.7528
2023-04-22T03:32:39.447Z,95.1118
2023-04-22T03:33:47.457Z,94.8777
2023-04-22T03:34:55.576Z,94.7830
2023-04-22T03:36:03.642Z,94.5458
2023-04-22T03:37:11.781Z,95.0628
2023-04-22T03:38:20.115Z,95.0988
2023-04-22T03:39:27.842Z,94.6482
2023-04-22T03:40:35.899Z,94.0746
2023-04-22T03:41:44.038Z,93.7999
2023-04-22T03:42:52.034Z,93.5260
2023-04-22T03:44:01.775Z,94.0928
2023-04-22T03:45:12.870Z,94.4153
2023-04-22T03:46:21.210Z,94.9803
2023-04-22T03:47:29.326Z,95.6154
2023-04-22T03:48:37.226Z,95.1618
2023-04-22T03:49:45.320Z,95.2748
2023-04-22T03:50:53.365Z,95.6236
2023-04-22T03:52:01.441Z,95.9270
2023-04-22T03:53:09.641Z,94.6892
2023-04-22T03:54:17.551Z,95.1826
2023-04-22T03:55:25.639Z,97.3961
2023-04-22T03:56:33.707Z,98.2178
2023-04-22T03:57:41.651Z,99.1400
2023-04-22T03:58:49.732Z,101.1002
2023-04-22T03:59:57.762Z,100.9497
2023-04-22T04:01:05.942Z,100.6516
2023-04-22T04:02:14.125Z,100.8833
2023-04-22T04:03:22.234Z,100.8891
2023-04-22T04:04:30.646Z,101.4543
2023-04-22T04:05:38.339Z,100.9441
2023-04-22T04:06:46.241Z,99.6452
2023-04-22T04:07:54.308Z,97.9643
2023-04-22T04:09:02.468Z,97.7570
2023-04-22T04:10:10.552Z,98.1572
2023-04-22T04:11:18.526Z,100.2703
2023-04-22T04:12:26.517Z,100.1322
2023-04-22T04:13:34.573Z,100.4053
2023-04-22T04:14:42.680Z,100.5203
2023-04-22T04:15:50.924Z,100.0775
2023-04-22T04:16:58.905Z,98.8852
2023-04-22T04:18:07.072Z,96.9247
2023-04-22T04:19:14.997Z,97.9189
2023-04-22T04:20:23.145Z,96.3138
2023-04-22T04:21:31.141Z,95.2015
2023-04-22T04:22:39.242Z,96.0102
2023-04-22T04:23:47.238Z,99.8233
2023-04-22T04:24:55.505Z,99.5406
2023-04-22T04:26:03.423Z,98.7878
2023-04-22T04:27:11.349Z,98.0328
2023-04-22T04:28:19.442Z,97.1322
2023-04-22T04:29:27.511Z,95.2476
2023-04-22T04:30:35.768Z,94.8582
2023-04-22T04:31:44.018Z,95.7001
2023-04-22T04:32:51.917Z,95.0085
2023-04-22T04:33:59.872Z,94.6685
2023-04-22T04:35:08.102Z,93.6416
2023-04-22T04:36:16.071Z,92.8847
2023-04-22T04:37:24.046Z,92.8905
2023-04-22T04:38:32.118Z,91.3285
2023-04-22T04:39:40.523Z,92.5096
2023-04-22T04:40:48.189Z,93.6580
2023-04-22T04:41:56.275Z,94.4628
2023-04-22T04:43:04.340Z,94.5103
2023-04-22T04:44:13.125Z,95.4038
2023-04-22T04:45:20.599Z,95.5043
2023-04-22T04:46:28.748Z,95.3475
2023-04-22T04:47:36.804Z,95.1984
2023-04-22T04:48:44.746Z,95.0895
2023-04-22T04:49:52.849Z,94.9736
2023-04-22T04:51:01.006Z,95.4198
2023-04-22T04:52:09.005Z,95.9352
2023-04-22T04:53:17.020Z,97.0718
2023-04-22T04:54:25.045Z,98.3316
2023-04-22T04:55:33.046Z,97.2619
2023-04-22T04:56:41.130Z,96.4677
2023-04-22T04:57:49.232Z,96.6836
2023-04-22T04:58:57.615Z,97.7232
2023-04-22T05:00:05.514Z,96.8475
2023-04-22T05:01:13.562Z,96.6578
2023-04-22T05:02:21.775Z,96.1260
2023-04-22T05:03:29.816Z,96.3303
2023-04-22T05:04:37.855Z,96.0681
2023-04-22T05:05:45.718Z,96.0824
2023-04-22T05:06:53.815Z,95.4990
2023-04-22T05:08:02.072Z,94.5250
2023-04-22T05:09:09.979Z,94.4754
2023-04-22T05:10:17.925Z,95.3618
2023-04-22T05:11:26.001Z,95.5798
2023-04-22T05:12:34.047Z,96.2111
2023-04-22T05:13:42.262Z,97.4238
2023-04-22T05:14:50.370Z,96.0527
2023-04-22T05:15:58.425Z,95.3839
2023-04-22T05:17:06.391Z,94.6810
2023-04-22T05:18:14.470Z,95.2810
2023-04-22T05:19:22.596Z,97.3258
2023-04-22T05:20:31.612Z,98.6744
2023-04-22T05:21:43.550Z,98.7752
2023-04-22T05:22:51.595Z,98.6780
2023-04-22T05:23:59.592Z,98.8061
2023-04-22T05:25:07.648Z,98.6916
2023-04-22T05:26:15.788Z,97.7844
2023-04-22T05:27:23.923Z,96.8747
2023-04-22T05:28:31.956Z,96.1836
2023-04-22T05:29:40.221Z,95.8925
2023-04-22T05:30:48.100Z,96.6981
2023-04-22T05:31:56.551Z,96.1997
2023-04-22T05:33:04.301Z,94.9496
2023-04-22T05:34:12.506Z,94.1124
2023-04-22T05:35:20.341Z,93.2208
2023-04-22T05:36:31.174Z,93.1268
2023-04-22T05:37:41.246Z,92.9506
2023-04-22T05:38:49.284Z,92.4099
2023-04-22T05:39:57.367Z,92.0349
2023-04-22T05:41:05.675Z,91.4036
2023-04-22T05:42:13.640Z,92.2673
2023-04-22T05:43:21.583Z,93.1922
2023-04-22T05:44:29.683Z,94.5167
2023-04-22T05:45:37.816Z,95.9525
2023-04-22T05:46:45.846Z,96.6882
2023-04-22T05:47:54.105Z,97.0536
2023-04-22T05:49:01.920Z,96.5220
2023-04-22T05:50:10.040Z,95.3953
2023-04-22T05:51:18.171Z,94.4747
2023-04-22T05:52:26.038Z,93.5814
2023-04-22T05:53:34.183Z,93.4027
2023-04-22T05:54:42.179Z,93.5867
2023-04-22T05:55:50.339Z,93.8341
2023-04-22T05:56:58.399Z,94.6151
2023-04-22T05:58:06.461Z,94.8193
2023-04-22T05:59:14.663Z,95.6980
2023-04-22T06:00:22.576Z,97.3231
2023-04-22T06:01:30.638Z,98.0156
2023-04-22T06:02:38.835Z,98.5320
2023-04-22T06:03:46.913Z,98.7261
2023-04-22T06:04:55.048Z,98.5427
2023-04-22T06:06:02.936Z,98.2634
2023-04-22T06:07:10.906Z,96.9668
2023-04-22T06:08:18.965Z,95.4430
2023-04-22T06:09:27.147Z,96.2041
2023-04-22T06:10:35.231Z,96.8298
2023-04-22T06:11:43.304Z,96.1793
2023-04-22T06:12:51.417Z,95.7185
2023-04-22T06:13:59.363Z,95.2153
2023-04-22T06:15:07.642Z,95.7916
2023-04-22T06:16:15.651Z,94.8747
2023-04-22T06:17:23.685Z,94.8352
2023-04-22T06:18:31.720Z,95.1417
2023-04-22T06:19:40.084Z,94.4103
2023-04-22T06:20:47.788Z,93.7417
2023-04-22T06:21:55.797Z,93.1975
2023-04-22T06:23:03.870Z,92.8161
2023-04-22T06:24:11.996Z,92.9276
2023-04-22T06:25:20.067Z,92.1776
2023-04-22T06:26:28.198Z,92.2598
2023-04-22T06:27:36.194Z,92.3240
2023-04-22T06:28:44.262Z,92.5720
2023-04-22T06:29:52.482Z,92.6386
2023-04-22T06:31:00.407Z,92.5710
2023-04-22T06:32:08.558Z,92.9035
2023-04-22T06:33:16.650Z,93.4862
2023-04-22T06:34:24.658Z,94.5624
2023-04-22T06:35:32.575Z,95.2670
2023-04-22T06:36:40.657Z,96.1876
2023-04-22T06:37:48.738Z,96.2441
2023-04-22T06:38:56.917Z,95.7788
2023-04-22T06:40:04.905Z,95.0981
2023-04-22T06:41:13.007Z,95.4690
2023-04-22T06:42:21.032Z,95.8492
2023-04-22T06:43:29.152Z,96.7533
2023-04-22T06:44:37.157Z,96.9191
2023-04-22T06:45:45.291Z,97.1656
2023-04-22T06:46:54.758Z,96.6072
2023-04-22T06:48:06.226Z,96.1659
2023-04-22T06:49:14.273Z,94.9734
2023-04-22T06:50:22.352Z,94.1422
2023-04-22T06:51:30.341Z,94.3379
2023-04-22T06:52:38.423Z,94.3722
2023-04-22T06:53:46.487Z,93.7994
2023-04-22T06:54:54.599Z,93.8122
2023-04-22T06:56:02.672Z,94.3449
2023-04-22T06:57:10.705Z,94.5893
2023-04-22T06:58:18.809Z,93.8884
2023-04-22T06:59:26.887Z,93.2360
2023-04-22T07:00:34.963Z,92.2232
2023-04-22T07:01:43.095Z,92.8659
2023-04-22T07:02:51.191Z,94.0616
2023-04-22T07:03:59.129Z,95.9443
2023-04-22T07:05:07.146Z,96.5770
2023-04-22T07:06:15.204Z,96.2879
2023-04-22T07:07:23.256Z,96.4260
2023-04-22T07:08:31.463Z,94.8579
2023-04-22T07:09:39.708Z,95.5397
2023-04-22T07:10:47.558Z,94.5320
2023-04-22T07:11:55.571Z,93.8165
2023-04-22T07:13:03.768Z,93.9015
2023-04-22T07:14:11.688Z,94.0882
2023-04-22T07:15:19.895Z,93.8822
2023-04-22T07:16:27.972Z,93.1676
2023-04-22T07:17:36.010Z,92.4494
2023-04-22T07:18:43.897Z,92.7450
2023-04-22T07:19:51.971Z,92.0105
2023-04-22T07:21:00.035Z,91.3825
2023-04-22T07:22:08.127Z,89.4836
2023-04-22T07:23:16.183Z,88.8148
2023-04-22T07:24:24.383Z,89.5247
2023-04-22T07:25:32.322Z,89.1782
2023-04-22T07:26:40.528Z,89.2522
2023-04-22T07:27:48.514Z,89.6274
2023-04-22T07:28:56.541Z,89.4204
2023-04-22T07:30:04.586Z,88.7044
2023-04-22T07:31:12.683Z,89.6100
2023-04-22T07:32:20.855Z,91.3511
2023-04-22T07:33:28.747Z,90.5279
2023-04-22T07:34:36.791Z,89.8909
2023-04-22T07:35:44.829Z,90.0133
2023-04-22T07:36:52.870Z,89.7199
2023-04-22T07:38:01.035Z,90.3985
2023-04-22T07:39:09.251Z,91.0181
2023-04-22T07:40:17.165Z,90.1402
2023-04-22T07:41:25.245Z,89.0176
2023-04-22T07:42:33.415Z,89.8317
2023-04-22T07:43:41.355Z,88.6930
2023-04-22T07:44:49.455Z,88.5750
2023-04-22T07:45:57.538Z,89.0079
2023-04-22T07:47:05.690Z,90.6818
2023-04-22T07:48:13.622Z,90.0828
2023-04-22T07:49:21.632Z,89.0848
2023-04-22T07:50:29.731Z,89.3415
2023-04-22T07:51:37.827Z,89.7220
2023-04-22T07:52:45.940Z,87.6097
2023-04-22T07:53:53.912Z,87.4702
2023-04-22T07:55:02.162Z,86.5156
2023-04-22T07:56:10.105Z,88.4876
2023-04-22T07:57:18.151Z,88.8828
2023-04-22T07:58:26.234Z,89.8904
2023-04-22T07:59:34.300Z,89.8306
2023-04-22T08:00:42.494Z,89.2640
2023-04-22T08:01:50.651Z,88.1847
2023-04-22T08:02:58.577Z,85.9110
2023-04-22T08:04:06.656Z,88.2104
2023-04-22T08:05:14.634Z,90.0867
2023-04-22T08:06:23.022Z,88.2156
2023-04-22T08:07:33.394Z,87.6690
2023-04-22T08:08:43.734Z,87.0272
2023-04-22T08:09:51.939Z,86.9036
2023-04-22T08:10:59.932Z,85.9975
2023-04-22T08:12:07.906Z,86.4571
2023-04-22T08:13:18.136Z,85.7146
2023-04-22T08:14:28.877Z,85.0938
2023-04-22T08:15:36.940Z,85.3238
2023-04-22T08:16:44.935Z,83.8274
2023-04-22T08:17:53.039Z,83.4675
2023-04-22T08:19:01.280Z,82.9776
2023-04-22T08:20:09.263Z,82.8577
2023-04-22T08:21:17.295Z,80.5624
2023-04-22T08:22:25.344Z,81.6033
2023-04-22T08:23:33.488Z,80.5268
2023-04-22T08:24:41.444Z,80.2240
2023-04-22T08:25:49.583Z,79.0115
2023-04-22T08:26:57.617Z,77.2808
2023-04-22T08:28:05.707Z,78.2477
2023-04-22T08:29:13.743Z,79.7228
2023-04-22T08:30:21.741Z,80.4830
2023-04-22T08:31:29.772Z,79.3273
2023-04-22T08:32:37.877Z,79.0906
2023-04-22T08:33:46.083Z,77.4520
2023-04-22T08:34:57.720Z,76.2909
2023-04-22T08:36:06.984Z,75.3216
2023-04-22T08:37:15.065Z,75.0852
2023-04-22T08:38:23.056Z,75.0179
2023-04-22T08:39:31.298Z,75.3026
2023-04-22T08:40:39.349Z,73.7811
2023-04-22T08:41:47.276Z,74.1287
2023-04-22T08:42:55.425Z,75.5058
2023-04-22T08:44:03.334Z,76.1533
2023-04-22T08:45:11.436Z,75.2886
2023-04-22T08:46:19.471Z,76.9266
2023-04-22T08:47:27.625Z,76.4286
2023-04-22T08:48:35.734Z,73.4025
2023-04-22T08:49:43.641Z,70.8444
2023-04-22T08:50:51.898Z,71.1888
2023-04-22T08:51:59.971Z,73.8581
2023-04-22T08:53:07.912Z,74.2584
2023-04-22T08:54:16.062Z,73.1282
2023-04-22T08:55:24.040Z,73.6572
2023-04-22T08:56:32.125Z,73.0359
2023-04-22T08:57:40.196Z,73.0540
2023-04-22T08:58:48.231Z,70.8828
2023-04-22T08:59:56.242Z,71.8863
2023-04-22T09:01:04.318Z,72.9478
2023-04-22T09:02:12.543Z,71.2289
2023-04-22T09:03:20.574Z,71.3714
2023-04-22T09:04:28.604Z,72.1626
2023-04-22T09:05:36.687Z,71.1766
2023-04-22T09:06:44.664Z,70.8435
2023-04-22T09:07:52.872Z,71.3761
2023-04-22T09:09:00.826Z,71.6240
2023-04-22T09:10:08.862Z,70.1865
2023-04-22T09:11:16.911Z,71.1521
2023-04-22T09:12:24.994Z,68.8344
2023-04-22T09:13:33.014Z,68.0525
2023-04-22T09:14:41.031Z,67.2381
2023-04-22T09:15:49.075Z,67.7426
2023-04-22T09:16:57.388Z,69.6725
2023-04-22T09:18:05.295Z,70.2234
2023-04-22T09:19:13.429Z,71.7412
2023-04-22T09:20:21.488Z,70.6506
2023-04-22T09:21:29.494Z,68.8202
2023-04-22T09:22:37.523Z,69.5389
2023-04-22T09:23:45.720Z,69.0519
2023-04-22T09:24:53.723Z,69.4930
2023-04-22T09:26:01.744Z,68.9515
2023-04-22T09:27:09.768Z,69.7087
2023-04-22T09:28:17.919Z,70.8514
2023-04-22T09:29:25.837Z,69.3570
2023-04-22T09:30:34.082Z,66.9534
2023-04-22T09:31:41.994Z,66.1086
2023-04-22T09:32:50.146Z,67.2097
2023-04-22T09:33:58.146Z,68.6625
2023-04-22T09:35:06.311Z,69.9371
2023-04-22T09:36:14.291Z,72.5791
2023-04-22T09:37:22.337Z,71.5997
2023-04-22T09:38:30.432Z,68.2946
2023-04-22T09:39:38.711Z,67.1731
2023-04-22T09:40:46.488Z,69.1056
2023-04-22T09:41:54.659Z,68.8302
2023-04-22T09:43:02.601Z,66.5608
2023-04-22T09:44:10.711Z,68.2688
2023-04-22T09:45:18.940Z,64.8274
2023-04-22T09:46:26.742Z,62.3965
2023-04-22T09:47:34.916Z,62.9011
2023-04-22T09:48:43.031Z,63.7398
2023-04-22T09:49:51.083Z,65.1681
2023-04-22T09:50:59.072Z,66.0830
2023-04-22T09:52:07.174Z,66.6734
2023-04-22T09:53:15.216Z,66.4449
2023-04-22T09:54:23.242Z,67.0608
2023-04-22T09:55:31.477Z,68.4646
2023-04-22T09:56:39.394Z,69.2970
2023-04-22T09:57:47.432Z,68.0332
2023-04-22T09:58:55.446Z,64.7301
2023-04-22T10:00:03.472Z,62.4706
2023-04-22T10:01:11.594Z,62.9712
2023-04-22T10:02:19.698Z,64.9223
2023-04-22T10:03:27.853Z,65.4419
2023-04-22T10:04:36.073Z,65.1826
2023-04-22T10:05:43.854Z,67.7071
2023-04-22T10:06:51.931Z,66.7657
2023-04-22T10:08:00.183Z,67.6236
2023-04-22T10:09:09.411Z,64.9089
2023-04-22T10:10:16.102Z,66.0367
2023-04-22T10:11:24.540Z,65.3800
2023-04-22T10:12:35.532Z,63.4442
2023-04-22T10:13:45.112Z,63.7973
2023-04-22T10:14:53.372Z,64.9832
2023-04-22T10:16:01.336Z,64.9067
2023-04-22T10:17:09.386Z,63.3827
2023-04-22T10:18:17.381Z,61.1995
2023-04-22T10:19:25.609Z,60.8124
2023-04-22T10:20:33.620Z,59.5862
2023-04-22T10:21:41.675Z,56.0692
2023-04-22T10:22:49.723Z,56.2942
2023-04-22T10:23:57.773Z,57.1521
2023-04-22T10:25:06.027Z,55.5965
2023-04-22T10:26:13.845Z,50.9771
2023-04-22T10:27:21.878Z,50.4941
2023-04-22T10:28:29.998Z,52.3662
2023-04-22T10:29:38.316Z,52.5767
2023-04-22T10:30:46.185Z,53.0388
2023-04-22T10:31:54.260Z,52.3501
2023-04-22T10:33:02.328Z,48.7814
2023-04-22T10:34:10.313Z,49.8495
2023-04-22T10:35:18.496Z,49.6315
2023-04-22T10:36:26.486Z,48.7034
2023-04-22T10:37:34.514Z,51.9852
2023-04-22T10:38:42.556Z,53.3780
2023-04-22T10:39:50.740Z,52.4201
2023-04-22T10:40:58.726Z,50.9564
2023-04-22T10:42:06.727Z,48.5857
2023-04-22T10:43:14.778Z,45.4835
2023-04-22T10:44:23.006Z,45.9481
2023-04-22T10:45:30.951Z,46.8871
2023-04-22T10:46:39.099Z,48.6543
2023-04-22T10:47:47.256Z,45.8545
2023-04-22T10:48:55.225Z,45.3379
2023-04-22T10:50:03.291Z,46.6548
2023-04-22T10:51:11.506Z,47.5616
2023-04-22T10:52:19.531Z,44.1806
2023-04-22T10:53:27.568Z,45.0152
2023-04-22T10:54:35.606Z,44.8160
2023-04-22T10:55:43.780Z,43.5395
2023-04-22T10:56:57.584Z,46.1506
2023-04-22T10:58:04.648Z,47.9739
2023-04-22T10:59:12.738Z,48.7771
2023-04-22T11:00:20.861Z,50.1412
2023-04-22T11:01:28.917Z,52.2821
2023-04-22T11:02:36.951Z,51.2716
2023-04-22T11:03:45.038Z,49.2277
2023-04-22T11:04:53.083Z,49.5450
2023-04-22T11:06:01.081Z,48.2411
2023-04-22T11:07:09.251Z,47.7380
2023-04-22T11:08:17.201Z,47.5683
2023-04-22T11:09:25.161Z,50.1752
2023-04-22T11:10:33.284Z,51.0844
2023-04-22T11:11:41.328Z,51.0189
2023-04-22T11:12:49.435Z,51.2537
2023-04-22T11:13:57.482Z,52.9140
2023-04-22T11:15:05.615Z,54.8683
2023-04-22T11:16:13.659Z,52.4751
2023-04-22T11:17:21.704Z,50.6046
2023-04-22T11:18:29.758Z,50.1394
2023-04-22T11:19:38.212Z,48.2852
2023-04-22T11:20:45.932Z,49.0090
2023-04-22T11:21:54.088Z,48.9301
2023-04-22T11:23:02.093Z,48.7572
2023-04-22T11:24:10.033Z,47.7787
2023-04-22T11:25:18.077Z,50.6062
2023-04-22T11:26:26.182Z,51.6724
2023-04-22T11:27:34.234Z,49.7102
2023-04-22T11:28:42.344Z,48.5619
2023-04-22T11:29:50.391Z,48.7105
2023-04-22T11:30:58.469Z,51.3757
2023-04-22T11:32:06.426Z,53.0349
2023-04-22T11:33:14.515Z,51.6557
2023-04-22T11:34:22.688Z,52.8571
2023-04-22T11:35:30.809Z,52.7432
2023-04-22T11:36:38.820Z,51.6388
2023-04-22T11:37:46.863Z,51.2799
2023-04-22T11:38:54.811Z,49.2770
2023-04-22T11:40:21.373Z,47.7273
2023-04-22T11:41:15.897Z,46.9625
2023-04-22T11:42:24.079Z,48.8585
2023-04-22T11:43:31.908Z,50.7039
2023-04-22T11:44:39.975Z,51.3783
2023-04-22T11:45:48.094Z,49.0424
2023-04-22T11:46:56.317Z,48.5639
2023-04-22T11:48:04.220Z,51.1112
2023-04-22T11:49:12.373Z,50.0991
2023-04-22T11:50:20.241Z,49.5229
2023-04-22T11:51:28.347Z,51.6668
2023-04-22T11:52:36.372Z,49.1705
2023-04-22T11:53:44.454Z,49.5117
2023-04-22T11:54:52.495Z,46.5850
2023-04-22T11:56:00.713Z,47.6403
2023-04-22T11:57:08.784Z,51.3110
2023-04-22T11:58:16.703Z,50.7071
2023-04-22T11:59:24.923Z,50.9810
2023-04-22T12:00:32.945Z,47.8701
2023-04-22T12:01:41.118Z,46.2039
2023-04-22T12:02:49.132Z,46.7850
2023-04-22T12:03:57.208Z,46.8682
2023-04-22T12:05:05.127Z,48.2095
2023-04-22T12:06:13.097Z,50.0485
2023-04-22T12:07:21.186Z,49.6455
2023-04-22T12:08:29.238Z,51.2447
2023-04-22T12:09:37.484Z,53.8721
2023-04-22T12:10:45.384Z,55.6151
2023-04-22T12:11:53.434Z,53.0592
2023-04-22T12:13:01.578Z,54.3684
2023-04-22T12:14:09.569Z,55.6872
2023-04-22T12:15:18.751Z,55.4372
2023-04-22T12:16:25.749Z,55.8919
2023-04-22T12:17:33.727Z,54.4608
2023-04-22T12:18:41.799Z,56.2727
2023-04-22T12:19:49.916Z,57.3791
2023-04-22T12:20:58.001Z,58.2051
2023-04-22T12:22:06.246Z,54.8715
2023-04-22T12:23:14.012Z,56.0090
2023-04-22T12:24:22.124Z,57.1429
2023-04-22T12:25:30.145Z,58.6127
2023-04-22T12:26:38.202Z,57.0134
2023-04-22T12:27:46.257Z,54.7435
2023-04-22T12:28:54.318Z,55.7549
2023-04-22T12:30:02.466Z,55.1413
2023-04-22T12:31:10.558Z,53.9445
2023-04-22T12:32:18.550Z,55.3479
2023-04-22T12:33:26.554Z,54.8244
2023-04-22T12:34:34.653Z,54.5423
2023-04-22T12:35:42.763Z,53.8185
2023-04-22T12:36:50.753Z,53.0943
2023-04-22T12:37:58.830Z,52.8281
2023-04-22T12:39:06.861Z,53.0670
2023-04-22T12:40:14.960Z,52.0382
2023-04-22T12:41:23.281Z,51.8838
2023-04-22T12:42:31.138Z,52.5828
2023-04-22T12:43:39.235Z,54.0718
2023-04-22T12:44:47.188Z,52.3268
2023-04-22T12:45:55.329Z,51.6569
2023-04-22T12:47:03.310Z,51.0026
2023-04-22T12:48:11.717Z,51.2579
2023-04-22T12:49:19.477Z,51.7374
2023-04-22T12:50:27.621Z,52.1882
2023-04-22T12:51:35.955Z,52.0629
2023-04-22T12:52:43.651Z,51.5078
2023-04-22T12:53:51.691Z,50.2472
2023-04-22T12:54:59.772Z,51.4466
2023-04-22T12:56:07.896Z,51.5983
2023-04-22T12:57:15.866Z,51.0654
2023-04-22T12:58:23.912Z,50.8090
2023-04-22T12:59:32.109Z,50.6500
2023-04-22T13:00:40.119Z,47.5412
2023-04-22T13:01:48.267Z,48.7255
2023-04-22T13:02:56.307Z,48.7730
2023-04-22T13:04:04.543Z,49.0330
2023-04-22T13:05:12.442Z,51.1043
2023-04-22T13:06:20.472Z,50.5763
2023-04-22T13:07:28.382Z,50.9069
2023-04-22T13:08:36.459Z,50.3864
2023-04-22T13:09:44.515Z,53.3944
2023-04-22T13:10:52.685Z,52.6435
2023-04-22T13:12:00.794Z,49.1194
2023-04-22T13:14:21.694Z,47.8807
2023-04-22T13:15:29.798Z,48.1961
2023-04-22T13:16:37.962Z,49.6770
2023-04-22T13:17:47.624Z,48.4009
2023-04-22T13:18:58.817Z,48.4699
2023-04-22T13:20:06.798Z,47.4812
2023-04-22T13:21:14.902Z,48.5498
2023-04-22T13:22:22.932Z,49.7333
2023-04-22T13:23:31.130Z,51.0475
2023-04-22T13:24:39.126Z,51.7222
2023-04-22T13:25:47.131Z,51.1033
2023-04-22T13:26:55.289Z,51.7911
2023-04-22T13:28:03.315Z,53.8044
2023-04-22T13:29:11.392Z,52.5236
2023-04-22T13:30:19.508Z,54.0431
2023-04-22T13:31:27.505Z,53.2618
2023-04-22T13:32:35.549Z,55.6113
2023-04-22T13:33:43.565Z,55.4377
2023-04-22T13:34:51.640Z,55.5294
2023-04-22T13:35:59.811Z,56.0499
2023-04-22T13:37:07.746Z,55.5612
2023-04-22T13:38:15.824Z,54.6429
2023-04-22T13:39:23.874Z,55.7077
2023-04-22T13:40:32.035Z,55.3351
2023-04-22T13:41:40.117Z,55.9388
2023-04-22T13:42:48.152Z,55.3097
2023-04-22T13:43:56.260Z,54.8681
2023-04-22T13:45:04.316Z,55.3226